Brookhaven, Mississippi
Current Conditions -  °F | °C
As of 4:15 AM on Tuesday 27 Jan 2015 (Local Time) from K1R7 Reporting Station
Clear Clear  
Wind Chill: 41°   Ceiling: Unl
Heat Index: 45°   Visibility: NA
Dew Point: 36°   Wind: 6mph
Humidity: 71%   Direction: 250°WSW
Pressure: 30.04"   Gusts: NA
Location:  31.58°N, 90.44°W
Report Text: K1R7 271015Z AUTO 25005KT CLR 07/02 A3004 RMK AO2
Loading
Personal Weather Stations






























Interactive Weather Map New forecast layout! Learn more

10-Day Weather Forecast

Advertisements
Track Severe Weather on mobile